Time;durP1;ratioP1;P1;durP2;ratioP2;P2;SDS_P1;SDS_P2;PMS_P1;PMS_P2;Temp;Humidity;BMP_temperature;BMP_pressure;BME280_temperature;BME280_humidity;BME280_pressure;Samples;Min_cycle;Max_cycle;Signal;HPM_P1;HPM_P2
2021/06/20 00:01:37;;;;;;;;;;;;;;;23.90;55.58;99300.63;5154533;27;19975;-37
2021/06/20 00:04:03;;;;;;;;;;;;;;;24.02;55.52;99291.94;5135942;27;19915;-38
2021/06/20 00:06:35;;;;;;;;;;;;;;;24.16;54.53;99293.53;5154309;27;19921;-38
2021/06/20 00:09:01;;;;;;;;;;;;;;;24.11;54.41;99295.56;5154120;27;20006;-38
2021/06/20 00:11:27;;;;;;;;;;;;;;;24.29;54.18;99293.81;5154525;27;20306;-38
2021/06/20 00:13:52;;;;;;;;;;;;;;;24.30;53.50;99295.44;5154471;27;20351;-38
2021/06/20 00:16:18;;;;;;;;;;;;;;;24.22;53.78;99288.81;5154114;27;19954;-38
2021/06/20 00:18:43;;;;;;;;;;;;;;;24.16;54.22;99288.09;5154406;27;19998;-38
2021/06/20 00:21:08;;;;;;;;;;;;;;;24.29;53.97;99278.28;5148193;27;19967;-37
2021/06/20 00:23:34;;;;;;;;;;;;;;;24.40;53.98;99284.31;5114971;27;20291;-37
2021/06/20 00:25:59;;;;;;;;;;;;;;;24.38;53.52;99284.63;5133097;27;19923;-36
2021/06/20 00:28:24;;;;;;;;;;;;;;;24.46;53.44;99285.81;5144116;27;19911;-37
2021/06/20 00:30:50;;;;;;;;;;;;;;;24.45;53.96;99283.41;5153856;27;20363;-37
2021/06/20 00:33:16;;;;;;;;;;;;;;;24.14;54.05;99278.63;5153911;27;19919;-37
2021/06/20 00:35:41;;;;;;;;;;;;;;;24.06;54.62;99279.38;5153764;27;19915;-37
2021/06/20 00:38:06;;;;;;;;;;;;;;;24.03;54.13;99283.50;5154126;27;20018;-37
2021/06/20 00:40:32;;;;;;;;;;;;;;;23.48;55.77;99287.00;5153990;27;20002;-37
2021/06/20 00:42:57;;;;;;;;;;;;;;;23.50;55.96;99279.34;5135076;27;20376;-37
2021/06/20 00:45:22;;;;;;;;;;;;;;;23.28;55.95;99284.66;5154057;27;19965;-37
2021/06/20 00:47:48;;;;;;;;;;;;;;;23.31;56.11;99294.91;5154393;27;19939;-38
2021/06/20 00:50:13;;;;;;;;;;;;;;;23.42;55.55;99291.72;5154541;27;19915;-38
2021/06/20 00:52:39;;;;;;;;;;;;;;;23.61;55.08;99293.53;5154459;27;20155;-37
2021/06/20 00:55:04;;;;;;;;;;;;;;;23.66;55.23;99288.00;5154160;27;20330;-37
2021/06/20 00:57:30;;;;;;;;;;;;;;;23.86;54.61;99291.47;5154277;27;19911;-38
2021/06/20 00:59:55;;;;;;;;;;;;;;;23.42;55.15;99296.34;5154095;27;19998;-38
2021/06/20 01:02:20;;;;;;;;;;;;;;;23.16;55.62;99287.84;5135144;27;20405;-38
2021/06/20 01:04:46;;;;;;;;;;;;;;;23.37;56.11;99289.06;5153777;27;20025;-37
2021/06/20 01:07:15;;;;;;;;;;;;;;;23.47;55.23;99293.50;5153734;27;20310;-38
2021/06/20 01:09:40;;;;;;;;;;;;;;;23.48;55.27;99286.19;5153773;27;19915;-38
2021/06/20 01:12:06;;;;;;;;;;;;;;;23.64;54.63;99283.97;5154121;27;19911;-37
2021/06/20 01:14:32;;;;;;;;;;;;;;;23.85;53.81;99287.94;5153668;27;20263;-37
2021/06/20 01:16:57;;;;;;;;;;;;;;;23.75;54.10;99286.19;5153006;27;19998;-37
2021/06/20 01:19:23;;;;;;;;;;;;;;;23.50;54.85;99283.97;5134537;27;19919;-38
2021/06/20 01:21:48;;;;;;;;;;;;;;;23.22;55.85;99289.34;5142153;27;19912;-38
2021/06/20 01:24:14;;;;;;;;;;;;;;;23.44;54.87;99291.41;5132640;27;19916;-38
2021/06/20 01:26:39;;;;;;;;;;;;;;;23.15;55.08;99292.47;5132790;27;20404;-38
2021/06/20 01:29:06;;;;;;;;;;;;;;;23.38;55.29;99289.88;5149264;27;19911;-38
2021/06/20 01:31:33;;;;;;;;;;;;;;;23.32;55.41;99282.94;5153050;27;19911;-38
2021/06/20 01:33:58;;;;;;;;;;;;;;;23.03;55.92;99286.69;5152445;27;19915;-38
2021/06/20 01:36:23;;;;;;;;;;;;;;;23.22;55.64;99292.88;5153374;27;19918;-38
2021/06/20 01:38:49;;;;;;;;;;;;;;;23.07;55.43;99290.41;5153268;27;19972;-37
2021/06/20 01:41:14;;;;;;;;;;;;;;;22.73;56.76;99296.91;5153281;27;19939;-37
2021/06/20 01:43:39;;;;;;;;;;;;;;;22.22;58.08;99300.31;5153322;27;20393;-37
2021/06/20 01:46:04;;;;;;;;;;;;;;;22.57;56.65;99292.81;5152939;27;19946;-38
2021/06/20 01:48:30;;;;;;;;;;;;;;;22.64;56.96;99299.47;5152568;27;19911;-38
2021/06/20 01:50:55;;;;;;;;;;;;;;;22.41;56.65;99298.47;5152707;27;20362;-37
2021/06/20 01:53:20;;;;;;;;;;;;;;;22.42;57.25;99304.69;5153081;27;19994;-37
2021/06/20 01:55:46;;;;;;;;;;;;;;;22.86;56.49;99306.19;5152490;27;19915;-38
2021/06/20 01:58:14;;;;;;;;;;;;;;;22.64;56.45;99298.69;5153055;27;19918;-38
2021/06/20 02:00:41;;;;;;;;;;;;;;;22.71;56.79;99301.81;5152988;27;19918;-37
2021/06/20 02:03:11;;;;;;;;;;;;;;;22.96;56.02;99302.50;5153007;27;19915;-37
2021/06/20 02:05:36;;;;;;;;;;;;;;;22.95;55.71;99307.13;5152945;27;19922;-37
2021/06/20 02:08:02;;;;;;;;;;;;;;;22.72;56.50;99300.72;5153002;27;19938;-38
2021/06/20 02:10:27;;;;;;;;;;;;;;;22.59;56.27;99304.16;5152965;27;19930;-37
2021/06/20 02:12:52;;;;;;;;;;;;;;;23.08;55.83;99308.31;5152824;27;19918;-37
2021/06/20 02:15:17;;;;;;;;;;;;;;;23.10;55.58;99306.13;5152837;27;19922;-37
2021/06/20 02:17:44;;;;;;;;;;;;;;;22.77;55.94;99314.22;5152627;27;19919;-37
2021/06/20 02:20:11;;;;;;;;;;;;;;;22.63;56.11;99306.00;5152834;27;20121;-38
2021/06/20 02:22:38;;;;;;;;;;;;;;;22.84;55.50;99313.81;5134895;27;20393;-38
2021/06/20 02:25:03;;;;;;;;;;;;;;;22.75;56.07;99315.59;5132170;28;19922;-37
2021/06/20 02:27:29;;;;;;;;;;;;;;;22.81;55.70;99311.72;5134752;27;20306;-39
2021/06/20 02:29:54;;;;;;;;;;;;;;;22.51;56.08;99324.63;5152593;27;20354;-37
2021/06/20 02:32:20;;;;;;;;;;;;;;;22.57;55.75;99315.31;5152370;27;19915;-37
2021/06/20 02:34:46;;;;;;;;;;;;;;;22.54;56.36;99321.34;5152979;27;20235;-38
2021/06/20 02:37:11;;;;;;;;;;;;;;;22.84;55.39;99324.66;5152645;27;19911;-38
2021/06/20 02:39:37;;;;;;;;;;;;;;;22.50;56.10;99330.31;5152434;27;19948;-38
2021/06/20 02:42:02;;;;;;;;;;;;;;;22.65;55.73;99328.19;5134046;27;20013;-37
2021/06/20 02:44:27;;;;;;;;;;;;;;;22.69;56.17;99320.28;5154385;27;19919;-38
2021/06/20 02:46:54;;;;;;;;;;;;;;;22.72;55.79;99325.13;5156478;27;19911;-37
2021/06/20 02:49:19;;;;;;;;;;;;;;;22.72;55.66;99329.75;5156815;27;19918;-38
2021/06/20 02:51:44;;;;;;;;;;;;;;;23.03;54.42;99325.47;5156833;27;19911;-38
2021/06/20 02:54:10;;;;;;;;;;;;;;;22.80;55.27;99331.78;5156745;27;19921;-38
2021/06/20 02:56:35;;;;;;;;;;;;;;;23.00;54.41;99334.19;5156533;27;19911;-39
2021/06/20 02:59:01;;;;;;;;;;;;;;;22.95;54.98;99322.63;5156489;27;19911;-37
2021/06/20 03:01:26;;;;;;;;;;;;;;;22.80;55.12;99320.94;5156470;27;19919;-38
2021/06/20 03:03:51;;;;;;;;;;;;;;;22.85;55.33;99323.59;5156132;27;19921;-36
2021/06/20 03:06:16;;;;;;;;;;;;;;;23.18;54.58;99323.63;5156201;27;19911;-36
2021/06/20 03:08:42;;;;;;;;;;;;;;;23.45;53.87;99319.38;5156391;27;19919;-37
2021/06/20 03:11:07;;;;;;;;;;;;;;;23.64;53.37;99322.81;5156028;27;19911;-38
2021/06/20 03:13:32;;;;;;;;;;;;;;;23.50;53.74;99322.00;5156427;27;19937;-38
2021/06/20 03:15:57;;;;;;;;;;;;;;;23.23;54.13;99318.91;5156149;27;19919;-38
2021/06/20 03:18:23;;;;;;;;;;;;;;;23.31;53.68;99322.06;5156119;27;19911;-37
2021/06/20 03:20:48;;;;;;;;;;;;;;;23.51;53.22;99321.66;5153275;27;20054;-37
2021/06/20 03:23:13;;;;;;;;;;;;;;;23.47;53.68;99326.09;5135288;27;19916;-38
2021/06/20 03:25:39;;;;;;;;;;;;;;;23.18;53.85;99320.91;5135398;27;19951;-38
2021/06/20 03:28:04;;;;;;;;;;;;;;;23.17;53.97;99333.69;5135117;27;19972;-37
2021/06/20 03:30:30;;;;;;;;;;;;;;;23.25;54.19;99336.78;5135191;27;20370;-38
2021/06/20 03:32:55;;;;;;;;;;;;;;;23.18;54.41;99337.19;5134988;27;20299;-38
2021/06/20 03:35:20;;;;;;;;;;;;;;;23.34;53.80;99343.16;5135277;27;19976;-37
2021/06/20 03:37:45;;;;;;;;;;;;;;;23.53;53.72;99341.22;5135065;27;19911;-38
2021/06/20 03:40:11;;;;;;;;;;;;;;;23.78;53.14;99337.25;5135077;27;19918;-37
2021/06/20 03:42:37;;;;;;;;;;;;;;;24.12;52.19;99333.31;5134977;27;19915;-39
2021/06/20 03:45:05;;;;;;;;;;;;;;;24.36;51.33;99338.50;5134637;27;19926;-38
2021/06/20 03:47:30;;;;;;;;;;;;;;;25.05;49.50;99339.44;5134730;27;20002;-37
2021/06/20 03:49:56;;;;;;;;;;;;;;;25.21;49.04;99340.66;5134804;27;20312;-38
2021/06/20 03:52:21;;;;;;;;;;;;;;;25.47;48.35;99345.50;5134617;27;19911;-37
2021/06/20 03:54:50;;;;;;;;;;;;;;;25.91;47.08;99338.31;5134523;27;19935;-38
2021/06/20 03:57:15;;;;;;;;;;;;;;;25.62;47.50;99345.09;5134305;27;19985;-38
2021/06/20 03:59:40;;;;;;;;;;;;;;;25.74;47.34;99345.31;5134711;27;19924;-38
2021/06/20 04:02:05;;;;;;;;;;;;;;;25.50;47.14;99348.41;5134346;27;19934;-37
2021/06/20 04:04:31;;;;;;;;;;;;;;;25.71;47.38;99343.22;5134592;27;19926;-38
2021/06/20 04:06:56;;;;;;;;;;;;;;;26.44;45.64;99355.63;5134299;27;19912;-38
2021/06/20 04:09:21;;;;;;;;;;;;;;;26.83;45.18;99353.94;5134390;27;19954;-37
2021/06/20 04:11:47;;;;;;;;;;;;;;;26.94;44.69;99359.88;5134493;27;19911;-37
2021/06/20 04:14:12;;;;;;;;;;;;;;;27.71;43.48;99357.34;5134312;27;19916;-38
2021/06/20 04:16:37;;;;;;;;;;;;;;;28.00;42.67;99353.84;5133941;27;20414;-36
2021/06/20 04:19:03;;;;;;;;;;;;;;;28.25;41.55;99349.38;5134480;27;19923;-38
2021/06/20 04:21:28;;;;;;;;;;;;;;;28.18;42.39;99346.34;5133901;27;20010;-39
2021/06/20 04:23:53;;;;;;;;;;;;;;;27.80;43.01;99344.44;5134167;27;20407;-38
2021/06/20 04:26:19;;;;;;;;;;;;;;;28.29;41.93;99344.84;5133957;27;19912;-36
2021/06/20 04:28:44;;;;;;;;;;;;;;;28.84;40.81;99349.31;5146834;27;19915;-36
2021/06/20 04:31:09;;;;;;;;;;;;;;;29.35;39.71;99340.94;5153956;27;19994;-37
2021/06/20 04:33:35;;;;;;;;;;;;;;;29.53;39.20;99349.78;5153812;27;19914;-37
2021/06/20 04:36:00;;;;;;;;;;;;;;;29.19;39.83;99364.66;5153917;27;20002;-38
2021/06/20 04:38:25;;;;;;;;;;;;;;;29.79;38.83;99362.41;5153839;27;19911;-38
2021/06/20 04:40:57;;;;;;;;;;;;;;;29.18;39.67;99358.34;5153700;27;20007;-38
2021/06/20 04:44:05;;;;;;;;;;;;;;;29.49;39.44;99356.28;5135084;27;20376;-38
2021/06/20 04:46:23;;;;;;;;;;;;;;;28.92;40.02;99350.38;5119420;27;19926;-37
2021/06/20 04:48:51;;;;;;;;;;;;;;;29.67;38.94;99360.44;5132811;27;19966;-38
2021/06/20 04:51:16;;;;;;;;;;;;;;;30.27;37.98;99360.78;5132932;27;19911;-38
2021/06/20 04:53:41;;;;;;;;;;;;;;;29.47;38.82;99355.81;5132959;27;19968;-38
2021/06/20 04:56:07;;;;;;;;;;;;;;;30.07;38.38;99362.53;5114253;27;19927;-39
2021/06/20 04:58:32;;;;;;;;;;;;;;;30.06;38.40;99360.91;5132632;27;19919;-38
2021/06/20 05:00:57;;;;;;;;;;;;;;;30.32;37.85;99357.84;5132508;27;19918;-39
2021/06/20 05:03:22;;;;;;;;;;;;;;;29.45;38.55;99356.16;5132580;27;20367;-39
2021/06/20 05:05:48;;;;;;;;;;;;;;;29.73;38.81;99361.03;5132376;27;19911;-39
2021/06/20 05:08:13;;;;;;;;;;;;;;;29.90;38.34;99365.50;5131656;27;20228;-39
2021/06/20 05:10:38;;;;;;;;;;;;;;;29.91;37.97;99367.09;5132468;27;20018;-39
2021/06/20 05:13:04;;;;;;;;;;;;;;;30.52;36.81;99367.09;5132486;27;19929;-39
2021/06/20 05:15:29;;;;;;;;;;;;;;;30.24;37.65;99355.22;5132448;27;19927;-39
2021/06/20 05:17:56;;;;;;;;;;;;;;;29.98;37.88;99370.06;5132142;27;19915;-38
2021/06/20 05:20:21;;;;;;;;;;;;;;;30.54;37.46;99364.78;5132271;27;19922;-38
2021/06/20 05:22:46;;;;;;;;;;;;;;;30.47;36.77;99363.78;5131418;27;19912;-39
2021/06/20 05:25:12;;;;;;;;;;;;;;;30.15;36.87;99356.13;5131493;27;19916;-39
2021/06/20 05:27:37;;;;;;;;;;;;;;;31.25;35.63;99367.22;5131429;27;20416;-51
2021/06/20 05:30:03;;;;;;;;;;;;;;;30.98;35.48;99366.88;5131360;27;20029;-49
2021/06/20 05:32:28;;;;;;;;;;;;;;;31.44;35.29;99363.78;5131536;27;19923;-51
2021/06/20 05:34:53;;;;;;;;;;;;;;;31.64;34.86;99365.50;5131729;27;19912;-50
2021/06/20 05:37:19;;;;;;;;;;;;;;;31.81;34.69;99361.59;5131743;27;19969;-50
2021/06/20 05:39:44;;;;;;;;;;;;;;;31.63;34.40;99347.41;5131669;27;19911;-50
2021/06/20 05:42:09;;;;;;;;;;;;;;;31.48;34.92;99349.00;5126808;27;19964;-50
2021/06/20 05:44:35;;;;;;;;;;;;;;;32.19;34.53;99356.63;5110999;28;19927;-50
2021/06/20 05:47:01;;;;;;;;;;;;;;;31.71;34.89;99357.44;5111003;28;19916;-50
2021/06/20 05:49:26;;;;;;;;;;;;;;;32.86;33.54;99359.25;5126599;27;20282;-51
2021/06/20 05:51:51;;;;;;;;;;;;;;;32.78;33.77;99352.81;5131310;27;20079;-51
2021/06/20 05:54:17;;;;;;;;;;;;;;;32.36;33.89;99352.69;5131725;27;20021;-50
2021/06/20 05:56:42;;;;;;;;;;;;;;;32.81;33.57;99351.31;5131920;27;20282;-50
2021/06/20 05:59:07;;;;;;;;;;;;;;;33.53;32.77;99352.66;5131818;27;19991;-39
2021/06/20 06:01:33;;;;;;;;;;;;;;;33.42;32.70;99350.53;5131834;27;19950;-38
2021/06/20 06:03:59;;;;;;;;;;;;;;;33.54;32.39;99346.00;5131280;27;19979;-38
2021/06/20 06:06:24;;;;;;;;;;;;;;;34.18;31.87;99336.03;5131160;27;19911;-50
2021/06/20 06:08:49;;;;;;;;;;;;;;;34.25;31.07;99341.66;5131339;27;19915;-49
2021/06/20 06:11:14;;;;;;;;;;;;;;;33.15;33.01;99344.13;5131233;27;20295;-50
2021/06/20 06:13:40;;;;;;;;;;;;;;;33.41;32.75;99343.41;5131223;27;19998;-50
2021/06/20 06:16:05;;;;;;;;;;;;;;;33.36;33.04;99342.91;5130994;27;19923;-50
2021/06/20 06:18:30;;;;;;;;;;;;;;;33.31;32.86;99350.31;5131033;27;19934;-50
2021/06/20 06:20:55;;;;;;;;;;;;;;;34.11;31.86;99348.91;5130970;27;19915;-48
2021/06/20 06:23:21;;;;;;;;;;;;;;;34.26;31.39;99328.63;5131113;27;20393;-49
2021/06/20 06:25:46;;;;;;;;;;;;;;;35.22;29.38;99344.81;5131024;28;19935;-48
2021/06/20 06:28:11;;;;;;;;;;;;;;;35.46;29.12;99351.78;5130732;28;20361;-48
2021/06/20 06:30:37;;;;;;;;;;;;;;;34.83;29.34;99345.19;5130893;28;19911;-50
2021/06/20 06:33:04;;;;;;;;;;;;;;;34.93;29.47;99338.97;5131068;28;19972;-48
2021/06/20 06:35:29;;;;;;;;;;;;;;;34.47;30.34;99341.94;5131097;28;19972;-47
2021/06/20 06:37:55;;;;;;;;;;;;;;;35.45;28.94;99344.66;5131137;28;19911;-50
2021/06/20 06:40:20;;;;;;;;;;;;;;;35.92;28.14;99348.63;5130990;28;19946;-48
2021/06/20 06:42:45;;;;;;;;;;;;;;;35.00;29.86;99349.31;5131055;28;19911;-49
2021/06/20 06:45:11;;;;;;;;;;;;;;;35.71;28.24;99352.03;5131005;28;19919;-49
2021/06/20 06:47:36;;;;;;;;;;;;;;;35.66;28.19;99346.81;5130988;27;20011;-48
2021/06/20 06:50:05;;;;;;;;;;;;;;;34.06;30.36;99345.28;5151770;27;19966;-51
2021/06/20 06:52:30;;;;;;;;;;;;;;;34.26;30.21;99350.72;5151494;27;19922;-49
2021/06/20 06:54:56;;;;;;;;;;;;;;;35.12;29.04;99343.50;5151546;27;19915;-49
2021/06/20 06:57:21;;;;;;;;;;;;;;;35.46;28.74;99345.47;5151674;27;19910;-50
2021/06/20 06:59:47;;;;;;;;;;;;;;;35.07;28.32;99332.78;5151634;27;20581;-48
2021/06/20 07:02:12;;;;;;;;;;;;;;;35.80;28.20;99341.44;5150954;27;19967;-50
2021/06/20 07:04:37;;;;;;;;;;;;;;;36.53;26.95;99339.91;5150785;27;20017;-50
2021/06/20 07:07:03;;;;;;;;;;;;;;;36.87;26.15;99332.16;5142191;27;19933;-47
2021/06/20 07:09:28;;;;;;;;;;;;;;;36.85;25.69;99323.44;5145496;27;20374;-49
2021/06/20 07:11:53;;;;;;;;;;;;;;;35.06;28.31;99328.44;5135198;27;19987;-49
2021/06/20 07:14:19;;;;;;;;;;;;;;;34.56;28.78;99322.34;5130876;28;19911;-40
2021/06/20 07:16:44;;;;;;;;;;;;;;;34.05;30.45;99323.56;5130914;28;19922;-48
2021/06/20 07:19:09;;;;;;;;;;;;;;;34.14;30.30;99328.81;5145768;27;20433;-49
2021/06/20 07:21:35;;;;;;;;;;;;;;;34.27;29.87;99328.28;5141700;27;19919;-49
2021/06/20 07:24:00;;;;;;;;;;;;;;;34.64;29.20;99327.56;5125877;27;19927;-50
2021/06/20 07:26:26;;;;;;;;;;;;;;;34.82;28.42;99330.56;5109867;28;19916;-49
2021/06/20 07:28:52;;;;;;;;;;;;;;;33.93;29.22;99326.53;5110039;28;19911;-49
2021/06/20 07:31:18;;;;;;;;;;;;;;;33.98;29.65;99337.25;5111765;28;20376;-51
2021/06/20 07:33:43;;;;;;;;;;;;;;;34.79;28.05;99322.25;5113530;28;19980;-49
2021/06/20 07:36:10;;;;;;;;;;;;;;;34.68;28.43;99327.63;5113510;28;19918;-49
2021/06/20 07:38:36;;;;;;;;;;;;;;;34.78;28.45;99329.72;5113452;28;19958;-49
2021/06/20 07:41:01;;;;;;;;;;;;;;;34.98;28.12;99329.56;5113431;28;20047;-49
2021/06/20 07:43:26;;;;;;;;;;;;;;;34.56;28.43;99323.13;5113218;28;20374;-49
2021/06/20 07:45:55;;;;;;;;;;;;;;;34.26;28.67;99323.91;5113125;28;19912;-50
2021/06/20 07:48:20;;;;;;;;;;;;;;;34.77;28.51;99319.84;5125524;27;20073;-50
2021/06/20 07:50:45;;;;;;;;;;;;;;;34.61;28.31;99311.72;5154308;27;19959;-49
2021/06/20 07:53:11;;;;;;;;;;;;;;;35.22;28.23;99308.88;5153959;27;19976;-49
2021/06/20 07:55:36;;;;;;;;;;;;;;;35.18;28.08;99308.06;5154426;27;19938;-48
2021/06/20 07:58:01;;;;;;;;;;;;;;;35.91;27.29;99305.53;5154411;27;20060;-49
2021/06/20 08:00:26;;;;;;;;;;;;;;;35.88;27.01;99311.03;5135697;27;19918;-49
2021/06/20 08:02:52;;;;;;;;;;;;;;;35.92;26.02;99304.34;5154353;27;20223;-48
2021/06/20 08:05:17;;;;;;;;;;;;;;;35.65;25.70;99309.25;5154269;27;19922;-48
2021/06/20 08:07:42;;;;;;;;;;;;;;;36.32;26.04;99313.69;5152878;27;20353;-49
2021/06/20 08:10:08;;;;;;;;;;;;;;;36.96;24.92;99306.84;5153465;27;20402;-48
2021/06/20 08:12:33;;;;;;;;;;;;;;;36.35;24.75;99307.41;5153717;27;19911;-47
2021/06/20 08:14:59;;;;;;;;;;;;;;;37.01;24.63;99308.44;5154496;27;19922;-50
2021/06/20 08:17:24;;;;;;;;;;;;;;;36.13;24.64;99309.22;5154476;27;20348;-50
2021/06/20 08:19:49;;;;;;;;;;;;;;;36.62;25.64;99306.31;5119214;27;19920;-50
2021/06/20 08:22:17;;;;;;;;;;;;;;;37.26;24.75;99305.72;5118254;27;19919;-49
2021/06/20 08:24:43;;;;;;;;;;;;;;;37.45;24.38;99304.53;5120333;27;20454;-49
2021/06/20 08:27:08;;;;;;;;;;;;;;;37.62;24.25;99309.31;5133988;27;20019;-48
2021/06/20 08:29:33;;;;;;;;;;;;;;;37.93;23.73;99310.47;5133812;27;19927;-50
2021/06/20 08:31:59;;;;;;;;;;;;;;;37.46;23.07;99297.81;5132072;27;19918;-50
2021/06/20 08:34:25;;;;;;;;;;;;;;;36.54;24.17;99309.06;5132617;27;19911;-50
2021/06/20 08:36:50;;;;;;;;;;;;;;;37.02;24.46;99302.50;5132969;27;20473;-50
2021/06/20 08:39:16;;;;;;;;;;;;;;;37.29;24.47;99296.63;5133155;27;20416;-50
2021/06/20 08:41:41;;;;;;;;;;;;;;;37.66;23.68;99309.31;5133023;27;19918;-48
2021/06/20 08:44:16;;;;;;;;;;;;;;;37.79;23.79;99306.94;5132933;27;19915;-50
2021/06/20 08:46:42;;;;;;;;;;;;;;;37.51;24.00;99305.75;5132982;27;20384;-51
2021/06/20 08:49:08;;;;;;;;;;;;;;;37.84;24.07;99306.53;5132898;27;19911;-51
2021/06/20 08:51:34;;;;;;;;;;;;;;;38.17;22.52;99298.94;5132951;27;19923;-49
2021/06/20 08:53:59;;;;;;;;;;;;;;;38.24;22.88;99301.72;5133188;27;19912;-51
2021/06/20 08:56:24;;;;;;;;;;;;;;;37.87;23.75;99294.63;5132879;27;20318;-50
2021/06/20 08:58:49;;;;;;;;;;;;;;;37.23;24.58;99293.44;5132615;27;20026;-48
2021/06/20 09:01:15;;;;;;;;;;;;;;;37.64;24.40;99292.28;5133038;27;20307;-50
2021/06/20 09:03:41;;;;;;;;;;;;;;;37.05;24.62;99293.41;5133062;27;19998;-50
2021/06/20 09:06:16;;;;;;;;;;;;;;;36.81;25.31;99300.47;5132568;27;20348;-49
2021/06/20 09:08:48;;;;;;;;;;;;;;;37.28;24.98;99290.28;5132965;27;19981;-50
2021/06/20 09:11:23;;;;;;;;;;;;;;;36.77;25.00;99297.69;5114150;27;19963;-49
2021/06/20 09:13:48;;;;;;;;;;;;;;;36.50;25.24;99297.16;5132975;27;19998;-48
2021/06/20 09:16:13;;;;;;;;;;;;;;;37.28;24.23;99289.47;5132527;27;20371;-48
2021/06/20 09:18:48;;;;;;;;;;;;;;;37.59;23.87;99284.34;5147139;27;19970;-51
2021/06/20 09:21:14;;;;;;;;;;;;;;;37.72;24.14;99289.09;5146740;27;19918;-51
2021/06/20 09:23:39;;;;;;;;;;;;;;;37.81;24.08;99285.13;5132293;27;20240;-49
2021/06/20 09:26:05;;;;;;;;;;;;;;;37.15;24.66;99278.00;5131989;27;19946;-50
2021/06/20 09:28:31;;;;;;;;;;;;;;;36.62;24.18;99279.41;5132021;27;20006;-48
2021/06/20 09:30:57;;;;;;;;;;;;;;;37.00;24.64;99274.38;5132217;27;19923;-51
2021/06/20 09:33:22;;;;;;;;;;;;;;;36.75;24.91;99277.09;5132482;27;19911;-50
2021/06/20 09:35:51;;;;;;;;;;;;;;;37.15;24.12;99276.00;5131985;27;19912;-50
2021/06/20 09:38:17;;;;;;;;;;;;;;;37.46;24.18;99275.63;5131755;27;20280;-49
2021/06/20 09:40:43;;;;;;;;;;;;;;;37.50;23.57;99279.97;5131627;27;19918;-49
2021/06/20 09:43:12;;;;;;;;;;;;;;;34.94;26.24;99282.53;5131881;27;19916;-48
2021/06/20 09:45:40;;;;;;;;;;;;;;;35.51;25.52;99282.28;5132040;27;19926;-50
2021/06/20 09:48:05;;;;;;;;;;;;;;;35.30;26.15;99274.63;5131639;27;20262;-48
2021/06/20 09:50:33;;;;;;;;;;;;;;;35.13;26.74;99266.91;5131700;27;20081;-48
2021/06/20 09:52:59;;;;;;;;;;;;;;;35.73;25.68;99269.41;5131276;27;19994;-50
2021/06/20 09:55:24;;;;;;;;;;;;;;;36.17;25.50;99276.81;5131706;27;20397;-48
2021/06/20 09:57:49;;;;;;;;;;;;;;;35.55;26.25;99274.03;5113046;28;20010;-49
2021/06/20 10:00:15;;;;;;;;;;;;;;;35.93;25.47;99255.31;5131476;27;19911;-47
2021/06/20 10:02:41;;;;;;;;;;;;;;;36.40;25.34;99265.47;5131732;27;20334;-49
2021/06/20 10:05:07;;;;;;;;;;;;;;;36.81;24.79;99261.66;5131999;27;20375;-49
2021/06/20 10:07:32;;;;;;;;;;;;;;;36.75;24.53;99263.25;5131696;27;19982;-49
2021/06/20 10:09:58;;;;;;;;;;;;;;;36.57;25.56;99252.84;5131358;27;20439;-47
2021/06/20 10:12:23;;;;;;;;;;;;;;;36.18;25.93;99247.19;5131492;27;19923;-49
2021/06/20 10:14:49;;;;;;;;;;;;;;;36.45;25.24;99244.13;5130635;27;19931;-49
2021/06/20 10:17:16;;;;;;;;;;;;;;;35.33;27.77;99248.94;5133556;27;19964;-51
2021/06/20 10:19:47;;;;;;;;;;;;;;;36.05;26.78;99257.75;5152249;27;20051;-48
2021/06/20 10:22:12;;;;;;;;;;;;;;;36.48;26.21;99249.69;5119041;27;20010;-50
2021/06/20 10:24:55;;;;;;;;;;;;;;;36.71;25.36;99254.91;5131315;27;20408;-48
2021/06/20 10:27:30;;;;;;;;;;;;;;;36.16;25.50;99261.38;5131914;28;19911;-50
2021/06/20 10:29:56;;;;;;;;;;;;;;;35.80;25.69;99255.63;5131479;28;19968;-49
2021/06/20 10:32:21;;;;;;;;;;;;;;;36.29;25.39;99249.97;5131435;28;19911;-49
2021/06/20 10:34:51;;;;;;;;;;;;;;;36.10;25.39;99248.28;5131454;28;20359;-47
2021/06/20 10:37:17;;;;;;;;;;;;;;;35.74;26.70;99250.88;5131509;28;19920;-50
2021/06/20 10:39:49;;;;;;;;;;;;;;;35.73;26.27;99247.28;5131427;28;19919;-51
2021/06/20 10:42:14;;;;;;;;;;;;;;;35.67;26.89;99251.56;5131342;28;19912;-49
2021/06/20 10:44:43;;;;;;;;;;;;;;;36.11;26.10;99245.13;5131605;28;20083;-49
2021/06/20 10:47:08;;;;;;;;;;;;;;;36.12;25.98;99241.19;5131336;28;19912;-50
2021/06/20 10:49:33;;;;;;;;;;;;;;;36.21;26.60;99235.31;5131138;28;19911;-49
2021/06/20 10:51:58;;;;;;;;;;;;;;;35.27;27.62;99239.41;5131592;28;19934;-48
2021/06/20 10:54:27;;;;;;;;;;;;;;;35.34;27.63;99230.38;5113122;28;19950;-50
2021/06/20 10:56:57;;;;;;;;;;;;;;;35.53;27.29;99232.09;5131189;28;19912;-50
2021/06/20 10:59:22;;;;;;;;;;;;;;;35.93;26.87;99230.41;5131501;28;19911;-50
2021/06/20 11:01:48;;;;;;;;;;;;;;;36.03;27.57;99232.44;5131352;28;19934;-48
2021/06/20 11:04:13;;;;;;;;;;;;;;;35.80;26.51;99233.50;5131232;27;20462;-49
2021/06/20 11:06:38;;;;;;;;;;;;;;;35.80;25.58;99232.72;5133404;27;20070;-50
2021/06/20 11:09:05;;;;;;;;;;;;;;;36.22;26.06;99222.28;5135238;27;20351;-49
2021/06/20 11:11:47;;;;;;;;;;;;;;;36.74;25.08;99215.31;5135585;27;19911;-51
2021/06/20 11:14:12;;;;;;;;;;;;;;;34.45;26.53;99212.50;5134849;27;19912;-48
2021/06/20 11:16:42;;;;;;;;;;;;;;;33.78;28.62;99213.22;5134680;27;20351;-47
2021/06/20 11:19:16;;;;;;;;;;;;;;;34.82;28.59;99216.47;5153527;27;19916;-49
2021/06/20 11:21:42;;;;;;;;;;;;;;;34.36;27.79;99208.47;5145139;27;19962;-48
2021/06/20 11:24:09;;;;;;;;;;;;;;;34.18;26.79;99206.28;5134697;27;20387;-50
2021/06/20 11:26:34;;;;;;;;;;;;;;;34.39;26.95;99204.94;5134555;27;19915;-50
2021/06/20 11:29:00;;;;;;;;;;;;;;;34.40;26.67;99201.78;5116471;27;19959;-51
2021/06/20 11:31:25;;;;;;;;;;;;;;;35.16;26.57;99208.09;5134840;27;19919;-50
2021/06/20 11:33:54;;;;;;;;;;;;;;;35.24;25.38;99212.53;5142440;27;19915;-47
2021/06/20 11:36:19;;;;;;;;;;;;;;;33.13;30.06;99207.84;5155317;27;19907;-50
2021/06/20 11:38:45;;;;;;;;;;;;;;;30.62;34.31;99194.81;5155066;27;20331;-48
2021/06/20 11:41:11;;;;;;;;;;;;;;;30.18;35.27;99201.81;5155084;27;19938;-48
2021/06/20 11:43:52;;;;;;;;;;;;;;;29.91;35.87;99191.59;5154880;27;19941;-48
2021/06/20 11:46:21;;;;;;;;;;;;;;;30.31;35.83;99194.34;5154845;27;19911;-50
2021/06/20 11:48:56;;;;;;;;;;;;;;;29.72;36.85;99195.72;5154897;27;20020;-49
2021/06/20 11:51:47;;;;;;;;;;;;;;;30.68;35.15;99185.94;5154792;27;19915;-50
2021/06/20 11:54:13;;;;;;;;;;;;;;;31.10;34.06;99190.19;5149454;27;20313;-48
2021/06/20 11:56:39;;;;;;;;;;;;;;;31.24;33.58;99189.72;5154649;27;20382;-51
2021/06/20 11:59:05;;;;;;;;;;;;;;;31.94;32.38;99181.53;5154381;27;19911;-50
2021/06/20 12:01:40;;;;;;;;;;;;;;;32.10;31.79;99180.69;5154718;27;19921;-48
2021/06/20 12:04:05;;;;;;;;;;;;;;;32.40;31.85;99180.13;5154766;27;19915;-51
2021/06/20 12:06:30;;;;;;;;;;;;;;;33.33;30.47;99172.72;5154637;27;20405;-51
2021/06/20 12:08:56;;;;;;;;;;;;;;;32.58;30.91;99172.22;5136182;27;19911;-49
2021/06/20 12:11:31;;;;;;;;;;;;;;;33.65;29.91;99165.75;5135861;27;19915;-49
2021/06/20 12:13:56;;;;;;;;;;;;;;;34.37;30.15;99169.44;5154482;27;20334;-48
2021/06/20 12:16:21;;;;;;;;;;;;;;;33.82;29.81;99169.91;5154302;27;19919;-48
2021/06/20 12:18:47;;;;;;;;;;;;;;;33.55;29.47;99162.78;5154865;27;19987;-50
2021/06/20 12:21:20;;;;;;;;;;;;;;;33.04;30.03;99161.22;5129454;27;19911;-49
2021/06/20 12:23:51;;;;;;;;;;;;;;;33.72;28.89;99151.28;5133822;27;20005;-49
2021/06/20 12:26:22;;;;;;;;;;;;;;;34.24;28.38;99151.53;5133834;27;19998;-49
2021/06/20 12:28:51;;;;;;;;;;;;;;;34.48;28.37;99141.91;5133446;27;19934;-51
2021/06/20 12:31:17;;;;;;;;;;;;;;;34.40;28.59;99138.28;5115070;27;19911;-50
2021/06/20 12:33:42;;;;;;;;;;;;;;;34.83;28.54;99133.19;5133663;27;20006;-50
2021/06/20 12:36:09;;;;;;;;;;;;;;;35.18;26.74;99131.13;5133452;27;20371;-49
2021/06/20 12:38:34;;;;;;;;;;;;;;;35.61;27.10;99134.94;5133572;27;19919;-50
2021/06/20 12:41:00;;;;;;;;;;;;;;;35.84;26.62;99133.13;5133170;27;20211;-49
2021/06/20 12:43:25;;;;;;;;;;;;;;;36.16;25.52;99122.94;5133506;27;19921;-49